sensor_id;sensor_type;location;lat;lon;timestamp;P1;durP1;ratioP1;P2;durP2;ratioP2
57315;SDS011;43156;50.942;18.144;2022-12-29T00:08:50;5.60;;;3.70;;
57315;SDS011;43156;50.942;18.144;2022-12-29T00:18:56;2.10;;;1.90;;
57315;SDS011;43156;50.942;18.144;2022-12-29T00:29:43;3.70;;;2.50;;
57315;SDS011;43156;50.942;18.144;2022-12-29T00:40:27;8.90;;;3.30;;
57315;SDS011;43156;50.942;18.144;2022-12-29T00:51:06;3.90;;;2.60;;
57315;SDS011;43156;50.942;18.144;2022-12-29T01:00:49;6.50;;;3.20;;
57315;SDS011;43156;50.942;18.144;2022-12-29T01:17:48;4.50;;;2.60;;
57315;SDS011;43156;50.942;18.144;2022-12-29T01:27:33;10.90;;;3.00;;
57315;SDS011;43156;50.942;18.144;2022-12-29T01:37:17;4.00;;;3.50;;
57315;SDS011;43156;50.942;18.144;2022-12-29T01:47:30;3.90;;;2.00;;
57315;SDS011;43156;50.942;18.144;2022-12-29T01:57:17;3.60;;;3.30;;
57315;SDS011;43156;50.942;18.144;2022-12-29T02:07:17;2.60;;;1.80;;
57315;SDS011;43156;50.942;18.144;2022-12-29T02:17:10;5.00;;;3.80;;
57315;SDS011;43156;50.942;18.144;2022-12-29T02:27:25;5.10;;;2.60;;
57315;SDS011;43156;50.942;18.144;2022-12-29T02:57:48;3.50;;;2.90;;
57315;SDS011;43156;50.942;18.144;2022-12-29T03:19:02;9.60;;;3.60;;
57315;SDS011;43156;50.942;18.144;2022-12-29T03:29:37;6.20;;;3.90;;
57315;SDS011;43156;50.942;18.144;2022-12-29T03:46:47;4.50;;;2.40;;
57315;SDS011;43156;50.942;18.144;2022-12-29T03:56:29;4.70;;;3.00;;
57315;SDS011;43156;50.942;18.144;2022-12-29T04:13:30;4.90;;;3.30;;
57315;SDS011;43156;50.942;18.144;2022-12-29T04:23:25;7.00;;;3.80;;
57315;SDS011;43156;50.942;18.144;2022-12-29T04:33:11;2.40;;;2.20;;
57315;SDS011;43156;50.942;18.144;2022-12-29T04:50:11;6.50;;;4.50;;
57315;SDS011;43156;50.942;18.144;2022-12-29T04:59:55;5.30;;;3.60;;
57315;SDS011;43156;50.942;18.144;2022-12-29T05:24:11;4.20;;;2.80;;
57315;SDS011;43156;50.942;18.144;2022-12-29T05:33:54;5.30;;;3.10;;
57315;SDS011;43156;50.942;18.144;2022-12-29T05:43:36;2.60;;;2.00;;
57315;SDS011;43156;50.942;18.144;2022-12-29T06:00:39;2.70;;;2.50;;
57315;SDS011;43156;50.942;18.144;2022-12-29T06:10:22;2.60;;;2.40;;
57315;SDS011;43156;50.942;18.144;2022-12-29T06:20:06;6.30;;;3.90;;
57315;SDS011;43156;50.942;18.144;2022-12-29T06:37:06;3.20;;;2.90;;
57315;SDS011;43156;50.942;18.144;2022-12-29T06:46:49;4.30;;;3.40;;
57315;SDS011;43156;50.942;18.144;2022-12-29T06:56:33;4.50;;;3.30;;
57315;SDS011;43156;50.942;18.144;2022-12-29T07:06:19;5.50;;;3.10;;
57315;SDS011;43156;50.942;18.144;2022-12-29T07:16:07;6.80;;;3.80;;
57315;SDS011;43156;50.942;18.144;2022-12-29T07:25:58;3.30;;;2.60;;
57315;SDS011;43156;50.942;18.144;2022-12-29T07:35:46;6.20;;;3.30;;
57315;SDS011;43156;50.942;18.144;2022-12-29T07:45:29;2.90;;;2.60;;
57315;SDS011;43156;50.942;18.144;2022-12-29T07:55:13;9.30;;;4.00;;
57315;SDS011;43156;50.942;18.144;2022-12-29T08:04:58;7.70;;;6.40;;
57315;SDS011;43156;50.942;18.144;2022-12-29T08:14:40;4.80;;;3.80;;
57315;SDS011;43156;50.942;18.144;2022-12-29T08:31:40;4.20;;;2.70;;
57315;SDS011;43156;50.942;18.144;2022-12-29T08:41:23;4.40;;;4.00;;
57315;SDS011;43156;50.942;18.144;2022-12-29T08:51:07;7.50;;;4.00;;
57315;SDS011;43156;50.942;18.144;2022-12-29T09:00:55;8.70;;;4.60;;
57315;SDS011;43156;50.942;18.144;2022-12-29T09:17:57;5.50;;;3.30;;
57315;SDS011;43156;50.942;18.144;2022-12-29T09:34:59;5.10;;;4.10;;
57315;SDS011;43156;50.942;18.144;2022-12-29T09:44:48;7.60;;;3.70;;
57315;SDS011;43156;50.942;18.144;2022-12-29T10:04:41;5.70;;;3.70;;
57315;SDS011;43156;50.942;18.144;2022-12-29T10:25:26;6.40;;;4.00;;
57315;SDS011;43156;50.942;18.144;2022-12-29T10:35:23;7.40;;;4.60;;
57315;SDS011;43156;50.942;18.144;2022-12-29T10:45:14;5.10;;;3.80;;
57315;SDS011;43156;50.942;18.144;2022-12-29T10:55:27;3.90;;;3.50;;
57315;SDS011;43156;50.942;18.144;2022-12-29T11:23:38;3.70;;;3.30;;
57315;SDS011;43156;50.942;18.144;2022-12-29T11:33:43;6.60;;;4.60;;
57315;SDS011;43156;50.942;18.144;2022-12-29T11:43:37;17.50;;;4.70;;
57315;SDS011;43156;50.942;18.144;2022-12-29T11:53:42;2.10;;;1.90;;
57315;SDS011;43156;50.942;18.144;2022-12-29T12:03:52;4.00;;;3.30;;
57315;SDS011;43156;50.942;18.144;2022-12-29T12:13:58;4.50;;;2.00;;
57315;SDS011;43156;50.942;18.144;2022-12-29T12:42:32;4.70;;;2.90;;
57315;SDS011;43156;50.942;18.144;2022-12-29T13:34:22;4.70;;;3.30;;
57315;SDS011;43156;50.942;18.144;2022-12-29T13:52:18;5.30;;;3.60;;
57315;SDS011;43156;50.942;18.144;2022-12-29T14:03:00;7.60;;;4.20;;
57315;SDS011;43156;50.942;18.144;2022-12-29T14:08:28;6.80;;;5.20;;
57315;SDS011;43156;50.942;18.144;2022-12-29T14:18:21;4.40;;;4.00;;
57315;SDS011;43156;50.942;18.144;2022-12-29T14:38:53;12.80;;;3.70;;
57315;SDS011;43156;50.942;18.144;2022-12-29T15:04:25;3.90;;;3.50;;
57315;SDS011;43156;50.942;18.144;2022-12-29T15:14:28;7.20;;;4.80;;
57315;SDS011;43156;50.942;18.144;2022-12-29T15:24:15;7.50;;;4.70;;
57315;SDS011;43156;50.942;18.144;2022-12-29T15:34:22;8.30;;;4.90;;
57315;SDS011;43156;50.942;18.144;2022-12-29T15:44:41;8.20;;;5.40;;
57315;SDS011;43156;50.942;18.144;2022-12-29T15:54:34;4.80;;;3.80;;
57315;SDS011;43156;50.942;18.144;2022-12-29T16:04:23;7.50;;;5.50;;
57315;SDS011;43156;50.942;18.144;2022-12-29T16:14:23;10.20;;;6.70;;
57315;SDS011;43156;50.942;18.144;2022-12-29T16:24:15;5.60;;;3.60;;
57315;SDS011;43156;50.942;18.144;2022-12-29T16:34:28;9.00;;;6.70;;
57315;SDS011;43156;50.942;18.144;2022-12-29T16:44:24;10.50;;;6.30;;
57315;SDS011;43156;50.942;18.144;2022-12-29T16:54:39;8.60;;;5.40;;
57315;SDS011;43156;50.942;18.144;2022-12-29T17:12:13;3.20;;;2.80;;
57315;SDS011;43156;50.942;18.144;2022-12-29T17:22:08;7.60;;;4.50;;
57315;SDS011;43156;50.942;18.144;2022-12-29T17:32:00;8.10;;;5.70;;
57315;SDS011;43156;50.942;18.144;2022-12-29T17:56:31;10.10;;;6.70;;
57315;SDS011;43156;50.942;18.144;2022-12-29T18:06:17;9.90;;;6.30;;
57315;SDS011;43156;50.942;18.144;2022-12-29T18:16:15;13.20;;;7.80;;
57315;SDS011;43156;50.942;18.144;2022-12-29T18:33:39;10.40;;;8.40;;
57315;SDS011;43156;50.942;18.144;2022-12-29T18:43:24;11.50;;;7.40;;
57315;SDS011;43156;50.942;18.144;2022-12-29T18:53:18;12.40;;;7.30;;
57315;SDS011;43156;50.942;18.144;2022-12-29T19:03:08;9.10;;;6.30;;
57315;SDS011;43156;50.942;18.144;2022-12-29T19:12:57;12.10;;;7.60;;
57315;SDS011;43156;50.942;18.144;2022-12-29T19:23:01;5.70;;;5.10;;
57315;SDS011;43156;50.942;18.144;2022-12-29T19:40:07;11.50;;;6.20;;
57315;SDS011;43156;50.942;18.144;2022-12-29T19:49:56;7.50;;;5.90;;
57315;SDS011;43156;50.942;18.144;2022-12-29T19:59:43;8.10;;;6.80;;
57315;SDS011;43156;50.942;18.144;2022-12-29T20:09:38;12.30;;;6.20;;
57315;SDS011;43156;50.942;18.144;2022-12-29T20:19:24;10.30;;;7.20;;
57315;SDS011;43156;50.942;18.144;2022-12-29T20:29:09;12.00;;;7.50;;
57315;SDS011;43156;50.942;18.144;2022-12-29T20:38:56;8.40;;;5.70;;
57315;SDS011;43156;50.942;18.144;2022-12-29T20:56:02;8.20;;;5.40;;
57315;SDS011;43156;50.942;18.144;2022-12-29T21:05:54;7.60;;;6.20;;
57315;SDS011;43156;50.942;18.144;2022-12-29T21:15:43;15.90;;;6.40;;
57315;SDS011;43156;50.942;18.144;2022-12-29T21:25:29;11.40;;;6.50;;
57315;SDS011;43156;50.942;18.144;2022-12-29T21:35:25;5.50;;;4.30;;
57315;SDS011;43156;50.942;18.144;2022-12-29T21:45:15;11.30;;;6.70;;
57315;SDS011;43156;50.942;18.144;2022-12-29T21:56:13;10.30;;;7.00;;
57315;SDS011;43156;50.942;18.144;2022-12-29T22:15:16;9.70;;;7.90;;
57315;SDS011;43156;50.942;18.144;2022-12-29T22:25:04;14.50;;;8.80;;
57315;SDS011;43156;50.942;18.144;2022-12-29T22:34:48;16.70;;;8.70;;
57315;SDS011;43156;50.942;18.144;2022-12-29T22:44:32;13.80;;;8.40;;
57315;SDS011;43156;50.942;18.144;2022-12-29T22:54:16;10.80;;;8.10;;
57315;SDS011;43156;50.942;18.144;2022-12-29T23:04:03;11.00;;;6.60;;
57315;SDS011;43156;50.942;18.144;2022-12-29T23:13:47;13.10;;;8.20;;
57315;SDS011;43156;50.942;18.144;2022-12-29T23:23:31;14.50;;;8.70;;
57315;SDS011;43156;50.942;18.144;2022-12-29T23:33:34;12.50;;;7.30;;
57315;SDS011;43156;50.942;18.144;2022-12-29T23:43:17;14.30;;;7.00;;
57315;SDS011;43156;50.942;18.144;2022-12-29T23:53:03;19.50;;;7.40;;
